createdAt,value
2022-08-10T00:01:36.330Z,67.00
2022-08-10T00:04:03.769Z,67.40
2022-08-10T00:06:30.775Z,67.60
2022-08-10T00:08:58.299Z,67.90
2022-08-10T00:11:25.854Z,68.20
2022-08-10T00:13:52.934Z,68.60
2022-08-10T00:16:20.108Z,68.90
2022-08-10T00:18:47.085Z,69.20
2022-08-10T00:21:14.152Z,69.40
2022-08-10T00:23:41.143Z,69.60
2022-08-10T00:26:08.434Z,69.80
2022-08-10T00:28:35.411Z,70.40
2022-08-10T00:31:02.505Z,70.60
2022-08-10T00:33:29.585Z,70.80
2022-08-10T00:35:56.577Z,70.90
2022-08-10T00:38:24.000Z,71.20
2022-08-10T00:40:51.226Z,71.50
2022-08-10T00:43:23.880Z,71.80
2022-08-10T00:45:59.362Z,72.20
2022-08-10T00:48:31.078Z,72.30
2022-08-10T00:51:00.175Z,72.70
2022-08-10T00:53:28.772Z,72.90
2022-08-10T00:57:12.933Z,73.40
2022-08-10T00:58:44.396Z,73.80
2022-08-10T01:02:07.366Z,74.10
2022-08-10T01:04:39.651Z,74.20
2022-08-10T01:07:21.416Z,74.20
2022-08-10T01:10:20.411Z,74.60
2022-08-10T01:13:11.114Z,74.50
2022-08-10T01:16:03.830Z,74.90
2022-08-10T01:18:49.091Z,75.50
2022-08-10T01:21:28.297Z,75.70
2022-08-10T01:24:26.368Z,75.90
2022-08-10T01:27:11.343Z,75.70
2022-08-10T01:29:59.710Z,76.30
2022-08-10T01:32:57.619Z,76.30
2022-08-10T01:35:40.210Z,76.70
2022-08-10T01:38:23.691Z,76.70
2022-08-10T01:41:00.800Z,76.90
2022-08-10T01:43:31.702Z,77.10
2022-08-10T01:46:01.420Z,77.50
2022-08-10T01:48:44.030Z,77.70
2022-08-10T01:51:32.689Z,78.10
2022-08-10T01:54:12.576Z,78.00
2022-08-10T01:56:46.756Z,78.40
2022-08-10T01:59:41.714Z,78.80
2022-08-10T02:02:23.445Z,78.80
2022-08-10T02:04:53.944Z,78.80
2022-08-10T02:07:27.712Z,79.10
2022-08-10T02:10:02.881Z,79.20
2022-08-10T02:12:33.801Z,79.40
2022-08-10T02:15:07.160Z,79.30
2022-08-10T02:18:00.282Z,79.40
2022-08-10T02:20:39.815Z,79.60
2022-08-10T02:23:13.164Z,79.80
2022-08-10T02:25:43.833Z,79.70
2022-08-10T02:28:27.383Z,79.70
2022-08-10T02:31:06.070Z,80.00
2022-08-10T02:33:37.890Z,80.00
2022-08-10T02:36:09.791Z,80.20
2022-08-10T02:38:59.590Z,80.40
2022-08-10T02:42:18.144Z,80.40
2022-08-10T02:45:25.441Z,80.60
2022-08-10T02:48:05.811Z,80.80
2022-08-10T02:50:41.792Z,80.80
2022-08-10T02:53:54.787Z,80.80
2022-08-10T02:56:20.035Z,81.00
2022-08-10T02:59:23.601Z,81.20
2022-08-10T03:01:55.725Z,81.20
2022-08-10T03:04:55.673Z,81.20
2022-08-10T03:07:42.893Z,81.30
2022-08-10T03:10:20.423Z,81.30
2022-08-10T03:12:56.630Z,81.60
2022-08-10T03:15:26.183Z,81.50
2022-08-10T03:17:56.942Z,81.90
2022-08-10T03:20:37.247Z,81.90
2022-08-10T03:23:26.899Z,81.70
2022-08-10T03:25:57.703Z,81.90
2022-08-10T03:28:32.016Z,82.20
2022-08-10T03:31:02.071Z,82.30
2022-08-10T03:33:39.827Z,82.40
2022-08-10T03:36:43.462Z,82.60
2022-08-10T03:38:55.487Z,82.60
2022-08-10T03:41:53.529Z,82.70
2022-08-10T03:44:29.787Z,83.00
2022-08-10T03:47:02.062Z,82.90
2022-08-10T03:49:32.074Z,83.30
2022-08-10T03:52:00.059Z,83.10
2022-08-10T03:54:28.461Z,83.30
2022-08-10T03:56:55.769Z,83.40
2022-08-10T03:59:23.247Z,83.50
2022-08-10T04:02:45.244Z,83.90
2022-08-10T04:04:38.632Z,84.10
2022-08-10T04:07:06.207Z,84.30
2022-08-10T04:09:53.680Z,84.40
2022-08-10T04:12:24.516Z,84.60
2022-08-10T04:14:53.219Z,84.60
2022-08-10T04:17:57.063Z,84.60
2022-08-10T04:20:34.508Z,84.50
2022-08-10T04:23:08.925Z,84.80
2022-08-10T04:25:38.684Z,84.80
2022-08-10T04:28:08.845Z,85.10
2022-08-10T04:30:37.631Z,85.40
2022-08-10T04:33:08.038Z,85.30
2022-08-10T04:35:37.045Z,85.40
2022-08-10T04:38:05.749Z,85.60
2022-08-10T04:40:32.886Z,85.70
2022-08-10T04:43:10.495Z,85.80
2022-08-10T04:45:49.963Z,85.70
2022-08-10T04:48:42.602Z,85.90
2022-08-10T04:51:17.705Z,85.60
2022-08-10T04:54:03.747Z,85.80
2022-08-10T04:56:39.425Z,85.80
2022-08-10T04:59:09.810Z,85.80
2022-08-10T05:02:22.910Z,86.00
2022-08-10T05:04:36.676Z,85.70
2022-08-10T05:07:12.211Z,85.40
2022-08-10T05:10:01.860Z,85.50
2022-08-10T05:12:30.621Z,85.60
2022-08-10T05:14:57.739Z,85.70
2022-08-10T05:17:24.971Z,85.60
2022-08-10T05:20:04.120Z,85.40
2022-08-10T05:22:40.640Z,85.20
2022-08-10T05:25:15.234Z,84.80
2022-08-10T05:27:43.961Z,85.00
2022-08-10T05:30:18.413Z,84.80
2022-08-10T05:32:57.571Z,84.80
2022-08-10T05:35:28.356Z,84.40
2022-08-10T05:38:12.089Z,84.10
2022-08-10T05:40:46.336Z,83.80
2022-08-10T05:43:18.149Z,83.50
2022-08-10T05:46:19.211Z,83.20
2022-08-10T05:48:54.900Z,83.50
2022-08-10T05:51:23.190Z,82.80
2022-08-10T05:54:02.288Z,82.30
2022-08-10T05:56:53.423Z,82.50
2022-08-10T06:00:29.440Z,82.10
2022-08-10T06:02:41.649Z,82.10
2022-08-10T06:05:17.663Z,81.50
2022-08-10T06:08:26.915Z,81.10
2022-08-10T06:12:23.600Z,80.60
2022-08-10T06:14:13.058Z,80.20
2022-08-10T06:16:45.127Z,79.30
2022-08-10T06:19:14.658Z,79.20
2022-08-10T06:21:55.331Z,79.00
2022-08-10T06:25:04.689Z,78.60
2022-08-10T06:27:34.771Z,77.80
2022-08-10T06:30:20.185Z,77.90
2022-08-10T06:32:55.632Z,77.30
2022-08-10T06:35:31.895Z,77.20
2022-08-10T06:38:03.840Z,77.00
2022-08-10T06:40:39.309Z,76.40
2022-08-10T06:43:13.516Z,75.70
2022-08-10T06:46:07.622Z,75.30
2022-08-10T06:48:44.057Z,74.50
2022-08-10T06:51:20.375Z,74.30
2022-08-10T06:53:54.550Z,74.00
2022-08-10T06:56:36.282Z,73.80
2022-08-10T06:59:22.073Z,73.40
2022-08-10T07:02:08.055Z,72.80
2022-08-10T07:04:54.907Z,72.00
2022-08-10T07:07:27.904Z,71.60
2022-08-10T07:09:57.657Z,70.60
2022-08-10T07:12:25.943Z,70.20
2022-08-10T07:14:55.443Z,69.80
2022-08-10T07:17:26.530Z,69.30
2022-08-10T07:19:58.408Z,68.70
2022-08-10T07:23:27.018Z,68.50
2022-08-10T07:25:21.651Z,68.00
2022-08-10T07:27:59.914Z,67.80
2022-08-10T07:30:35.991Z,67.70
2022-08-10T07:33:06.143Z,67.60
2022-08-10T07:35:42.475Z,67.30
2022-08-10T07:38:27.015Z,67.00
2022-08-10T07:40:58.243Z,66.50
2022-08-10T07:43:31.170Z,66.00
2022-08-10T07:46:01.925Z,66.10
2022-08-10T07:48:42.207Z,65.20
2022-08-10T07:51:11.152Z,65.00
2022-08-10T07:53:45.358Z,64.60
2022-08-10T07:56:38.486Z,64.50
2022-08-10T07:59:10.422Z,63.30
2022-08-10T08:01:48.356Z,62.80
2022-08-10T08:04:19.431Z,62.50
2022-08-10T08:06:48.925Z,61.80
2022-08-10T08:09:16.115Z,61.30
2022-08-10T08:11:44.686Z,60.00
2022-08-10T08:14:15.314Z,60.30
2022-08-10T08:16:47.313Z,60.00
2022-08-10T08:19:35.858Z,59.50
2022-08-10T08:24:06.553Z,58.60
2022-08-10T08:24:57.375Z,56.00
2022-08-10T08:27:27.284Z,56.20
2022-08-10T08:29:55.665Z,54.10
2022-08-10T08:32:28.192Z,54.10
2022-08-10T08:35:03.469Z,54.10
2022-08-10T08:38:31.200Z,53.70
2022-08-10T08:40:37.077Z,52.40
2022-08-10T08:43:32.449Z,51.00
2022-08-10T08:46:17.641Z,50.30
2022-08-10T08:50:04.468Z,49.40
2022-08-10T08:52:35.756Z,48.80
2022-08-10T08:56:03.841Z,47.80
2022-08-10T08:59:05.251Z,47.40
2022-08-10T09:02:04.987Z,45.70
2022-08-10T09:05:21.975Z,46.30
2022-08-10T09:08:34.159Z,45.30
2022-08-10T09:11:19.158Z,45.70
2022-08-10T09:14:08.952Z,45.00
2022-08-10T09:16:57.696Z,44.20
2022-08-10T09:19:49.725Z,44.70
2022-08-10T09:22:34.279Z,43.70
2022-08-10T09:25:18.421Z,43.60
2022-08-10T09:28:11.768Z,43.00
2022-08-10T09:31:18.710Z,42.30
2022-08-10T09:36:19.321Z,42.10
2022-08-10T09:37:39.299Z,41.60
2022-08-10T09:40:59.274Z,40.90
2022-08-10T09:44:08.829Z,40.50
2022-08-10T09:47:19.995Z,40.20
2022-08-10T09:50:04.347Z,40.30
2022-08-10T09:52:58.950Z,38.90
2022-08-10T09:56:17.953Z,39.60
2022-08-10T09:59:27.196Z,39.60
2022-08-10T10:02:35.566Z,38.50
2022-08-10T10:05:59.500Z,39.30
2022-08-10T10:09:10.287Z,39.00
2022-08-10T10:12:05.276Z,37.10
2022-08-10T10:15:24.481Z,36.20
2022-08-10T10:18:22.300Z,36.80
2022-08-10T10:21:01.628Z,37.70
2022-08-10T10:24:21.155Z,38.10
2022-08-10T10:27:15.996Z,37.20
2022-08-10T10:29:56.798Z,36.80
2022-08-10T10:32:57.823Z,37.30
2022-08-10T10:35:44.155Z,37.10
2022-08-10T10:38:14.044Z,36.10
2022-08-10T10:41:03.232Z,36.60
2022-08-10T10:44:33.277Z,35.80
2022-08-10T10:47:55.434Z,35.40
2022-08-10T10:50:56.505Z,35.40
2022-08-10T10:53:47.197Z,35.30
2022-08-10T10:56:35.439Z,35.50
2022-08-10T10:59:56.345Z,35.90
2022-08-10T11:02:53.168Z,36.30
2022-08-10T11:06:01.312Z,35.80
2022-08-10T11:08:44.438Z,35.10
2022-08-10T11:11:59.850Z,35.10
2022-08-10T11:14:39.259Z,35.00
2022-08-10T11:17:22.559Z,35.30
2022-08-10T11:20:04.110Z,35.20
2022-08-10T11:22:53.337Z,35.10
2022-08-10T11:25:31.853Z,34.80
2022-08-10T11:28:16.288Z,34.60
2022-08-10T11:30:52.660Z,34.50
2022-08-10T11:34:47.757Z,34.50
2022-08-10T11:36:42.946Z,33.80
2022-08-10T11:39:28.922Z,32.80
2022-08-10T11:42:16.495Z,32.80
2022-08-10T11:45:02.311Z,32.50
2022-08-10T11:47:53.868Z,33.30
2022-08-10T11:50:39.552Z,33.70
2022-08-10T11:53:39.036Z,33.10
2022-08-10T11:56:12.619Z,33.00
2022-08-10T11:59:02.021Z,32.20
2022-08-10T12:01:47.651Z,32.70
2022-08-10T12:04:16.820Z,32.40
2022-08-10T12:07:01.850Z,32.20
2022-08-10T12:10:10.357Z,31.40
2022-08-10T12:12:20.257Z,31.90
2022-08-10T12:15:03.416Z,31.50
2022-08-10T12:17:38.132Z,31.30
2022-08-10T12:20:08.395Z,32.30
2022-08-10T12:22:57.475Z,32.20
2022-08-10T12:25:57.483Z,32.10
2022-08-10T12:29:15.650Z,32.80
2022-08-10T12:32:04.822Z,31.90
2022-08-10T12:34:50.885Z,32.40
2022-08-10T12:37:28.671Z,31.50
2022-08-10T12:40:37.039Z,31.70
2022-08-10T12:44:06.990Z,31.40
2022-08-10T12:46:18.429Z,31.50
2022-08-10T12:49:16.892Z,30.30
2022-08-10T12:51:57.373Z,30.30
2022-08-10T12:54:32.292Z,30.80
2022-08-10T12:57:10.122Z,30.60
2022-08-10T12:59:43.809Z,30.70
2022-08-10T13:02:26.469Z,30.50
2022-08-10T13:04:58.234Z,31.10
2022-08-10T13:08:24.345Z,30.20
2022-08-10T13:10:23.146Z,30.00
2022-08-10T13:12:56.880Z,29.50
2022-08-10T13:15:49.615Z,30.20
2022-08-10T13:18:38.416Z,30.70
2022-08-10T13:21:20.725Z,29.90
2022-08-10T13:24:09.619Z,31.50
2022-08-10T13:27:10.883Z,30.90
2022-08-10T13:29:48.058Z,31.00
2022-08-10T13:32:28.130Z,30.50
2022-08-10T13:35:00.900Z,30.60
2022-08-10T13:37:31.108Z,30.40
2022-08-10T13:40:01.923Z,30.60
2022-08-10T13:42:45.734Z,31.00
2022-08-10T13:45:20.429Z,30.50
2022-08-10T13:47:52.812Z,30.60
2022-08-10T13:50:33.499Z,30.30
2022-08-10T13:53:14.758Z,30.30
2022-08-10T13:55:54.805Z,30.60
2022-08-10T13:58:38.163Z,30.20
2022-08-10T14:01:13.975Z,30.50
2022-08-10T14:03:45.771Z,30.30
2022-08-10T14:06:15.947Z,29.90
2022-08-10T14:08:51.519Z,30.00
2022-08-10T14:11:21.357Z,30.10
2022-08-10T14:14:18.322Z,30.00
2022-08-10T14:16:47.602Z,30.10
2022-08-10T14:19:26.180Z,30.50
2022-08-10T14:21:55.483Z,30.10
2022-08-10T14:24:26.305Z,30.70
2022-08-10T14:27:05.657Z,30.80
2022-08-10T14:29:47.348Z,31.00
2022-08-10T14:32:23.578Z,30.50
2022-08-10T14:36:14.895Z,30.40
2022-08-10T14:38:05.487Z,30.20
2022-08-10T14:40:44.522Z,30.60
2022-08-10T14:43:28.464Z,30.30
2022-08-10T14:46:06.841Z,30.80
2022-08-10T14:48:43.419Z,30.90
2022-08-10T14:51:16.072Z,30.50
2022-08-10T14:53:50.371Z,30.50
2022-08-10T14:56:44.761Z,30.70
2022-08-10T14:59:40.619Z,30.20
2022-08-10T15:02:38.276Z,30.70
2022-08-10T15:05:13.492Z,30.30
2022-08-10T15:08:06.344Z,30.40
2022-08-10T15:10:33.873Z,30.60
2022-08-10T15:13:34.603Z,30.30
2022-08-10T15:16:13.746Z,30.70
2022-08-10T15:18:58.497Z,30.80
2022-08-10T15:21:42.996Z,30.90
2022-08-10T15:24:37.755Z,31.40
2022-08-10T15:27:08.975Z,32.30
2022-08-10T15:29:57.745Z,31.60
2022-08-10T15:32:56.651Z,31.80
2022-08-10T15:35:46.242Z,31.40
2022-08-10T15:38:23.034Z,31.40
2022-08-10T15:41:07.821Z,31.70
2022-08-10T15:43:44.749Z,31.60
2022-08-10T15:46:48.861Z,31.60
2022-08-10T15:49:32.977Z,31.40
2022-08-10T15:52:39.423Z,31.60
2022-08-10T15:55:42.394Z,31.60
2022-08-10T15:58:18.017Z,31.60
2022-08-10T16:00:57.251Z,31.90
2022-08-10T16:03:46.547Z,32.10
2022-08-10T16:06:33.114Z,32.00
2022-08-10T16:10:24.331Z,32.30
2022-08-10T16:12:15.194Z,32.40
2022-08-10T16:14:48.119Z,32.30
2022-08-10T16:17:18.631Z,32.20
2022-08-10T16:19:59.084Z,32.60
2022-08-10T16:22:35.653Z,32.80
2022-08-10T16:25:14.359Z,33.10
2022-08-10T16:27:43.844Z,32.90
2022-08-10T16:30:12.180Z,33.00
2022-08-10T16:32:40.418Z,33.20
2022-08-10T16:35:10.299Z,33.60
2022-08-10T16:37:58.911Z,33.60
2022-08-10T16:40:29.896Z,33.60
2022-08-10T16:43:03.451Z,33.80
2022-08-10T16:45:48.135Z,33.90
2022-08-10T16:48:48.664Z,34.20
2022-08-10T16:51:14.148Z,34.30
2022-08-10T16:53:48.335Z,34.60
2022-08-10T16:56:17.321Z,34.50
2022-08-10T16:58:54.841Z,34.60
2022-08-10T17:01:25.962Z,34.70
2022-08-10T17:04:09.101Z,35.10
2022-08-10T17:06:55.883Z,35.60
2022-08-10T17:09:32.007Z,35.50
2022-08-10T17:12:06.074Z,35.80
2022-08-10T17:14:33.421Z,36.60
2022-08-10T17:17:08.360Z,35.90
2022-08-10T17:19:47.752Z,36.00
2022-08-10T17:22:21.888Z,36.00
2022-08-10T17:25:21.459Z,36.00
2022-08-10T17:28:05.292Z,36.00
2022-08-10T17:30:57.278Z,36.10
2022-08-10T17:33:30.691Z,36.40
2022-08-10T17:36:04.155Z,36.50
2022-08-10T17:38:36.991Z,36.60
2022-08-10T17:41:12.472Z,37.00
2022-08-10T17:43:46.501Z,37.00
2022-08-10T17:46:41.368Z,37.00
2022-08-10T17:49:12.511Z,37.00
2022-08-10T17:51:48.409Z,36.90
2022-08-10T17:54:45.904Z,36.90
2022-08-10T17:57:18.704Z,37.20
2022-08-10T17:59:49.623Z,37.30
2022-08-10T18:02:28.187Z,37.50
2022-08-10T18:04:58.747Z,37.60
2022-08-10T18:07:38.632Z,37.80
2022-08-10T18:10:11.376Z,37.90
2022-08-10T18:12:47.461Z,38.00
2022-08-10T18:15:19.756Z,38.10
2022-08-10T18:17:58.293Z,38.30
2022-08-10T18:20:37.205Z,38.20
2022-08-10T18:23:07.841Z,38.30
2022-08-10T18:25:39.482Z,38.40
2022-08-10T18:28:12.437Z,38.60
2022-08-10T18:30:48.100Z,38.70
2022-08-10T18:33:18.823Z,38.90
2022-08-10T18:35:47.949Z,39.00
2022-08-10T18:38:17.317Z,39.20
2022-08-10T18:40:53.887Z,39.20
2022-08-10T18:44:09.955Z,39.30
2022-08-10T18:46:33.972Z,39.30
2022-08-10T18:49:19.498Z,39.50
2022-08-10T18:51:49.395Z,39.60
2022-08-10T18:54:44.496Z,39.80
2022-08-10T18:57:43.246Z,40.00
2022-08-10T19:00:15.368Z,40.10
2022-08-10T19:03:06.367Z,40.30
2022-08-10T19:06:09.219Z,40.30
2022-08-10T19:08:49.666Z,40.50
2022-08-10T19:12:03.650Z,40.60
2022-08-10T19:14:38.644Z,40.70
2022-08-10T19:17:22.407Z,40.80
2022-08-10T19:20:23.270Z,41.00
2022-08-10T19:23:41.364Z,41.20
2022-08-10T19:26:45.029Z,41.30
2022-08-10T19:30:10.703Z,41.40
2022-08-10T19:32:32.147Z,41.50
2022-08-10T19:35:24.493Z,41.70
2022-08-10T19:38:32.025Z,41.80
2022-08-10T19:41:32.059Z,42.00
2022-08-10T19:44:45.062Z,42.00
2022-08-10T19:47:43.028Z,42.30
2022-08-10T19:50:20.852Z,42.40
2022-08-10T19:53:19.317Z,42.60
2022-08-10T19:56:35.835Z,42.70
2022-08-10T20:00:17.316Z,42.90
2022-08-10T20:02:40.461Z,43.10
2022-08-10T20:05:16.006Z,43.30
2022-08-10T20:07:58.179Z,43.50
2022-08-10T20:10:45.133Z,43.70
2022-08-10T20:13:40.823Z,43.80
2022-08-10T20:16:27.244Z,44.10
2022-08-10T20:19:52.736Z,44.20
2022-08-10T20:22:29.536Z,44.30
2022-08-10T20:25:08.655Z,44.50
2022-08-10T20:28:00.537Z,44.60
2022-08-10T20:30:37.836Z,44.70
2022-08-10T20:33:30.210Z,45.00
2022-08-10T20:36:10.008Z,45.10
2022-08-10T20:38:55.931Z,45.10
2022-08-10T20:41:33.857Z,45.20
2022-08-10T20:44:54.096Z,45.20
2022-08-10T20:47:44.227Z,45.30
2022-08-10T20:50:40.366Z,45.50
2022-08-10T20:53:13.962Z,45.60
2022-08-10T20:55:54.487Z,45.80
2022-08-10T20:58:37.877Z,46.10
2022-08-10T21:02:06.937Z,46.20
2022-08-10T21:04:30.747Z,46.40
2022-08-10T21:10:45.495Z,46.50
2022-08-10T21:14:08.211Z,46.60
2022-08-10T21:17:08.152Z,46.90
2022-08-10T21:20:14.389Z,46.90
2022-08-10T21:22:47.183Z,46.90
2022-08-10T21:25:20.419Z,47.20
2022-08-10T21:28:25.219Z,47.40
2022-08-10T21:31:28.097Z,47.70
2022-08-10T21:34:11.649Z,47.60
2022-08-10T21:37:16.331Z,47.80
2022-08-10T21:40:34.656Z,48.00
2022-08-10T21:44:22.887Z,48.10
2022-08-10T21:48:17.598Z,48.10
2022-08-10T21:50:52.010Z,48.40
2022-08-10T21:54:02.908Z,48.40
2022-08-10T21:57:11.855Z,48.70
2022-08-10T22:00:12.610Z,48.80
2022-08-10T22:03:00.627Z,48.90
2022-08-10T22:05:57.734Z,48.90
2022-08-10T22:08:59.139Z,49.10
2022-08-10T22:11:52.996Z,49.20
2022-08-10T22:14:52.302Z,49.40
2022-08-10T22:18:01.185Z,49.60
2022-08-10T22:21:01.265Z,50.40
2022-08-10T22:24:19.022Z,49.90
2022-08-10T22:27:54.104Z,50.10
2022-08-10T22:31:02.629Z,50.40
2022-08-10T22:34:36.522Z,50.60
2022-08-10T22:38:07.641Z,50.70
2022-08-10T22:40:53.855Z,51.00
2022-08-10T22:43:49.776Z,51.20
2022-08-10T22:46:48.347Z,51.30
2022-08-10T22:49:23.985Z,51.80
2022-08-10T22:52:14.258Z,51.20
2022-08-10T22:55:15.235Z,51.30
2022-08-10T22:58:09.390Z,51.20
2022-08-10T23:00:38.421Z,51.00
2022-08-10T23:03:25.786Z,50.70
2022-08-10T23:06:10.692Z,50.60
2022-08-10T23:08:51.099Z,50.60
2022-08-10T23:11:27.409Z,50.50
2022-08-10T23:14:03.236Z,50.60
2022-08-10T23:17:14.177Z,51.10
2022-08-10T23:19:49.354Z,50.40
2022-08-10T23:22:21.751Z,50.50
2022-08-10T23:25:03.444Z,50.50
2022-08-10T23:27:37.534Z,50.40
2022-08-10T23:30:17.609Z,50.50
2022-08-10T23:32:59.010Z,50.50
2022-08-10T23:36:31.003Z,50.60
2022-08-10T23:38:25.357Z,50.60
2022-08-10T23:41:01.446Z,50.50
2022-08-10T23:44:02.905Z,50.60
2022-08-10T23:46:39.894Z,50.50
2022-08-10T23:49:11.647Z,50.80
2022-08-10T23:51:55.985Z,50.80
2022-08-10T23:54:26.479Z,50.90
2022-08-10T23:57:01.375Z,51.10
2022-08-10T23:59:32.178Z,51.10
